createdAt,value
2023-03-06T00:00:55.723Z,100019.66
2023-03-06T00:04:02.120Z,100016.47
2023-03-06T00:07:05.430Z,100018.31
2023-03-06T00:10:12.585Z,100013.44
2023-03-06T00:13:19.301Z,100007.31
2023-03-06T00:16:23.202Z,100016.72
2023-03-06T00:19:27.827Z,100006.50
2023-03-06T00:22:31.220Z,100004.13
2023-03-06T00:25:36.899Z,100000.91
2023-03-06T00:28:39.561Z,99996.63
2023-03-06T00:31:46.420Z,99988.81
2023-03-06T00:34:50.324Z,99987.75
2023-03-06T00:37:53.871Z,99982.34
2023-03-06T00:40:56.419Z,99987.44
2023-03-06T00:43:58.960Z,99980.25
2023-03-06T00:47:01.504Z,99984.56
2023-03-06T00:50:05.049Z,99987.78
2023-03-06T00:53:08.386Z,99985.91
2023-03-06T00:56:11.808Z,99986.47
2023-03-06T00:59:14.892Z,99982.41
2023-03-06T01:02:17.649Z,99973.03
2023-03-06T01:05:20.820Z,99970.34
2023-03-06T01:08:24.402Z,99971.66
2023-03-06T01:11:27.878Z,99958.78
2023-03-06T01:14:32.102Z,99961.19
2023-03-06T01:17:34.958Z,99964.13
2023-03-06T01:20:38.922Z,99959.28
2023-03-06T01:23:42.653Z,99951.53
2023-03-06T01:26:45.879Z,99952.03
2023-03-06T01:29:49.400Z,99953.69
2023-03-06T01:32:52.079Z,99949.34
2023-03-06T01:35:54.797Z,99946.94
2023-03-06T01:38:58.628Z,99948.53
2023-03-06T01:42:01.835Z,99949.34
2023-03-06T01:45:31.518Z,99940.50
2023-03-06T01:48:34.183Z,99932.97
2023-03-06T01:52:00.659Z,99938.06
2023-03-06T01:55:10.728Z,99934.84
2023-03-06T01:58:17.617Z,99941.59
2023-03-06T02:01:21.536Z,99945.59
2023-03-06T02:04:24.996Z,99949.88
2023-03-06T02:07:28.622Z,99940.22
2023-03-06T02:10:31.875Z,99944.25
2023-03-06T02:13:37.391Z,99933.78
2023-03-06T02:16:41.860Z,99937.00
2023-03-06T02:20:08.596Z,99938.34
2023-03-06T02:23:50.719Z,99929.50
2023-03-06T02:26:54.770Z,99924.13
2023-03-06T02:29:57.489Z,99925.44
2023-03-06T02:33:03.089Z,99932.44
2023-03-06T02:36:07.118Z,99931.63
2023-03-06T02:39:10.646Z,99929.22
2023-03-06T02:42:23.284Z,99922.78
2023-03-06T02:45:39.586Z,99928.94
2023-03-06T02:48:44.138Z,99939.94
2023-03-06T02:51:47.502Z,99942.34
2023-03-06T02:54:52.880Z,99944.25
2023-03-06T02:57:56.416Z,99938.34
2023-03-06T03:01:00.131Z,99943.69
2023-03-06T03:04:02.789Z,99938.34
2023-03-06T03:07:05.809Z,99937.25
2023-03-06T03:10:09.071Z,99940.75
2023-03-06T03:13:11.851Z,99932.16
2023-03-06T03:16:15.827Z,99933.81
2023-03-06T03:19:19.415Z,99933.78
2023-03-06T03:22:22.227Z,99925.72
2023-03-06T03:25:26.276Z,99922.78
2023-03-06T03:28:33.487Z,99917.94
2023-03-06T03:31:36.993Z,99923.84
2023-03-06T03:34:39.886Z,99916.34
2023-03-06T03:37:42.640Z,99915.00
2023-03-06T03:40:45.369Z,99919.81
2023-03-06T03:43:48.390Z,99919.28
2023-03-06T03:46:52.039Z,99909.06
2023-03-06T03:49:58.480Z,99917.38
2023-03-06T03:53:02.169Z,99910.69
2023-03-06T03:56:06.558Z,99910.38
2023-03-06T03:59:15.174Z,99912.25
2023-03-06T04:02:28.059Z,99910.06
2023-03-06T04:05:41.694Z,99913.63
2023-03-06T04:08:46.075Z,99915.53
2023-03-06T04:11:50.094Z,99907.13
2023-03-06T04:14:54.792Z,99911.44
2023-03-06T04:17:58.534Z,99913.06
2023-03-06T04:21:03.942Z,99916.84
2023-03-06T04:24:07.361Z,99919.53
2023-03-06T04:27:11.503Z,99920.88
2023-03-06T04:30:15.643Z,99921.69
2023-03-06T04:33:18.527Z,99915.81
2023-03-06T04:36:31.750Z,99909.88
2023-03-06T04:39:39.504Z,99914.41
2023-03-06T04:42:42.053Z,99916.53
2023-03-06T04:45:44.867Z,99919.25
2023-03-06T04:48:48.158Z,99908.50
2023-03-06T04:51:50.812Z,99907.91
2023-03-06T04:54:54.066Z,99917.91
2023-03-06T04:57:58.046Z,99911.72
2023-03-06T05:01:01.900Z,99905.78
2023-03-06T05:04:05.392Z,99901.19
2023-03-06T05:07:07.964Z,99909.56
2023-03-06T05:10:13.238Z,99906.34
2023-03-06T05:13:16.564Z,99908.25
2023-03-06T05:16:19.135Z,99911.47
2023-03-06T05:19:22.107Z,99912.00
2023-03-06T05:22:25.415Z,99904.53
2023-03-06T05:25:28.072Z,99906.91
2023-03-06T05:28:31.565Z,99909.59
2023-03-06T05:31:34.553Z,99919.78
2023-03-06T05:34:40.112Z,99921.94
2023-03-06T05:37:42.614Z,99917.09
2023-03-06T05:40:46.569Z,99916.28
2023-03-06T05:43:49.105Z,99919.28
2023-03-06T05:46:52.625Z,99917.38
2023-03-06T05:49:55.577Z,99920.63
2023-03-06T05:52:59.193Z,99927.59
2023-03-06T05:56:05.378Z,99927.59
2023-03-06T05:59:08.143Z,99920.88
2023-03-06T06:02:11.754Z,99930.28
2023-03-06T06:05:14.606Z,99924.94
2023-03-06T06:08:17.336Z,99921.44
2023-03-06T06:11:20.911Z,99927.34
2023-03-06T06:14:23.944Z,99938.06
2023-03-06T06:17:26.817Z,99933.50
2023-03-06T06:20:30.322Z,99933.78
2023-03-06T06:23:33.438Z,99942.38
2023-03-06T06:26:37.335Z,99946.13
2023-03-06T06:29:41.797Z,99942.84
2023-03-06T06:32:44.486Z,99943.41
2023-03-06T06:35:47.578Z,99940.22
2023-03-06T06:38:50.632Z,99947.22
2023-03-06T06:42:10.464Z,99945.59
2023-03-06T06:45:17.462Z,99942.88
2023-03-06T06:48:21.907Z,99940.75
2023-03-06T06:51:25.996Z,99939.41
2023-03-06T06:54:30.308Z,99945.63
2023-03-06T06:57:33.238Z,99947.75
2023-03-06T07:05:02.486Z,99921.97
2023-03-06T07:08:09.470Z,99927.88
2023-03-06T07:11:17.145Z,99946.41
2023-03-06T07:14:19.913Z,99948.81
2023-03-06T07:17:23.312Z,99953.13
2023-03-06T07:20:27.290Z,99959.34
2023-03-06T07:23:30.296Z,99959.06
2023-03-06T07:26:34.757Z,99960.41
2023-03-06T07:29:38.608Z,99967.66
2023-03-06T07:32:44.619Z,99957.97
2023-03-06T07:35:48.016Z,99961.97
2023-03-06T07:38:50.866Z,99960.09
2023-03-06T07:41:54.225Z,99962.53
2023-03-06T07:44:58.040Z,99976.78
2023-03-06T07:48:02.145Z,99957.44
2023-03-06T08:01:19.996Z,99975.97
2023-03-06T08:04:23.509Z,99976.47
2023-03-06T08:07:29.926Z,99977.03
2023-03-06T08:10:33.116Z,99979.47
2023-03-06T08:13:36.200Z,99971.13
2023-03-06T08:16:40.510Z,99974.63
2023-03-06T08:19:43.339Z,99971.94
2023-03-06T08:22:46.392Z,99967.91
2023-03-06T08:25:56.450Z,99960.91
2023-03-06T08:29:01.802Z,99969.25
2023-03-06T08:32:05.548Z,99968.69
2023-03-06T08:35:08.832Z,99975.41
2023-03-06T08:38:11.967Z,99978.06
2023-03-06T08:41:14.930Z,99975.13
2023-03-06T08:45:19.514Z,99973.75
2023-03-06T08:48:47.797Z,99972.91
2023-03-06T08:51:51.008Z,99967.16
2023-03-06T08:55:07.679Z,99977.28
2023-03-06T08:58:18.459Z,99970.94
2023-03-06T09:01:27.272Z,99970.94
2023-03-06T09:04:31.256Z,99969.09
2023-03-06T09:07:50.577Z,99969.13
2023-03-06T09:11:01.235Z,99949.31
2023-03-06T09:14:22.020Z,99945.47
2023-03-06T09:17:48.886Z,99947.25
2023-03-06T09:20:52.416Z,99946.13
2023-03-06T09:23:55.528Z,99949.22
2023-03-06T09:26:58.969Z,99934.63
2023-03-06T09:30:01.956Z,99933.13
2023-03-06T09:33:04.872Z,99929.72
2023-03-06T09:36:10.747Z,99925.25
2023-03-06T09:39:14.054Z,99927.28
2023-03-06T09:42:25.190Z,99924.97
2023-03-06T09:45:30.768Z,99928.00
2023-03-06T09:53:45.929Z,99923.31
2023-03-06T09:56:50.728Z,99911.56
2023-03-06T10:00:04.291Z,99916.63
2023-03-06T10:03:14.139Z,99918.28
2023-03-06T10:06:24.321Z,99924.50
2023-03-06T10:09:43.594Z,99919.34
2023-03-06T10:13:24.008Z,99915.00
2023-03-06T10:16:32.940Z,99919.31
2023-03-06T10:19:40.878Z,99918.94
2023-03-06T10:23:14.539Z,99906.78
2023-03-06T10:26:32.904Z,99909.06
2023-03-06T10:30:02.764Z,99910.03
2023-03-06T10:33:31.301Z,99905.53
2023-03-06T10:38:14.166Z,99902.56
2023-03-06T10:41:53.759Z,99895.38
2023-03-06T10:45:17.106Z,99881.75
2023-03-06T10:48:29.140Z,99880.06
2023-03-06T10:51:35.708Z,99877.16
2023-03-06T10:55:11.718Z,99864.72
2023-03-06T11:03:10.917Z,99849.38
2023-03-06T11:06:35.626Z,99848.25
2023-03-06T11:09:44.117Z,99843.97
2023-03-06T11:13:21.610Z,99837.19
2023-03-06T11:16:30.873Z,99821.22
2023-03-06T11:19:35.284Z,99813.22
2023-03-06T11:22:42.252Z,99805.06
2023-03-06T11:26:09.504Z,99804.91
2023-03-06T11:29:28.466Z,99797.81
2023-03-06T11:32:46.122Z,99787.91
2023-03-06T11:36:13.341Z,99773.72
2023-03-06T11:39:42.220Z,99771.03
2023-03-06T11:42:48.807Z,99764.69
2023-03-06T11:46:15.469Z,99759.09
2023-03-06T11:55:23.050Z,99742.50
2023-03-06T12:04:37.210Z,99719.66
2023-03-06T12:16:59.954Z,99696.97
2023-03-06T12:20:31.199Z,99702.38
2023-03-06T12:24:05.235Z,99694.13
2023-03-06T12:28:33.832Z,99690.50
2023-03-06T12:32:08.844Z,99698.38
2023-03-06T12:36:06.932Z,99697.38
2023-03-06T12:44:23.458Z,99690.56
2023-03-06T12:48:06.785Z,99680.78
2023-03-06T12:51:57.709Z,99691.88
2023-03-06T12:55:34.534Z,99683.97
2023-03-06T13:10:42.727Z,99670.84
2023-03-06T13:13:47.938Z,99677.47
2023-03-06T13:17:33.989Z,99668.97
2023-03-06T13:20:44.052Z,99667.09
2023-03-06T13:23:52.506Z,99663.56
2023-03-06T13:27:14.643Z,99649.47
2023-03-06T13:30:27.528Z,99657.47
2023-03-06T13:33:37.543Z,99649.97
2023-03-06T13:36:47.369Z,99647.25
2023-03-06T13:39:59.540Z,99640.84
2023-03-06T13:43:27.986Z,99629.94
2023-03-06T13:46:35.785Z,99641.31
2023-03-06T13:49:47.172Z,99633.72
2023-03-06T13:53:20.191Z,99634.16
2023-03-06T13:57:21.774Z,99622.84
2023-03-06T14:00:54.842Z,99615.84
2023-03-06T14:04:36.880Z,99618.63
2023-03-06T14:07:48.228Z,99624.16
2023-03-06T14:11:19.397Z,99615.53
2023-03-06T14:14:43.885Z,99621.50
2023-03-06T14:18:00.817Z,99612.31
2023-03-06T14:21:13.716Z,99611.94
2023-03-06T14:24:33.926Z,99620.03
2023-03-06T14:27:48.397Z,99615.94
2023-03-06T14:31:04.697Z,99613.97
2023-03-06T14:34:17.645Z,99610.31
2023-03-06T14:37:32.586Z,99613.03
2023-03-06T14:40:44.902Z,99610.25
2023-03-06T14:43:52.637Z,99596.03
2023-03-06T14:47:25.221Z,99597.78
2023-03-06T14:50:41.048Z,99602.28
2023-03-06T14:53:52.154Z,99593.72
2023-03-06T14:57:08.030Z,99592.75
2023-03-06T15:00:31.048Z,99592.53
2023-03-06T15:03:59.317Z,99596.19
2023-03-06T15:07:51.663Z,99592.38
2023-03-06T15:11:12.349Z,99595.53
2023-03-06T15:14:30.386Z,99590.72
2023-03-06T15:17:46.047Z,99597.63
2023-03-06T15:20:56.155Z,99587.72
2023-03-06T15:24:00.629Z,99580.53
2023-03-06T15:27:26.295Z,99577.97
2023-03-06T15:30:37.268Z,99579.16
2023-03-06T15:34:10.248Z,99565.06
2023-03-06T15:37:34.854Z,99577.03
2023-03-06T15:41:00.486Z,99574.75
2023-03-06T15:44:14.133Z,99573.88
2023-03-06T15:47:30.392Z,99580.00
2023-03-06T15:50:58.365Z,99585.06
2023-03-06T15:54:13.065Z,99581.03
2023-03-06T15:57:29.523Z,99587.34
2023-03-06T16:00:53.609Z,99593.41
2023-03-06T16:04:30.240Z,99589.69
2023-03-06T16:07:33.357Z,99599.28
2023-03-06T16:10:52.913Z,99597.38
2023-03-06T16:14:04.039Z,99596.88
2023-03-06T16:17:07.624Z,99595.19
2023-03-06T16:20:17.577Z,99596.69
2023-03-06T16:23:22.066Z,99605.75
2023-03-06T16:26:32.644Z,99601.50
2023-03-06T16:29:54.920Z,99598.91
2023-03-06T16:33:10.740Z,99602.78
2023-03-06T16:36:33.038Z,99606.88
2023-03-06T16:39:46.737Z,99609.25
2023-03-06T16:42:55.035Z,99598.25
2023-03-06T16:46:03.890Z,99604.69
2023-03-06T16:49:19.946Z,99602.81
2023-03-06T16:52:32.816Z,99604.81
2023-03-06T16:55:48.141Z,99605.25
2023-03-06T16:59:17.871Z,99616.16
2023-03-06T17:02:23.914Z,99611.13
2023-03-06T17:05:33.533Z,99611.22
2023-03-06T17:08:37.255Z,99606.59
2023-03-06T17:11:47.027Z,99608.34
2023-03-06T17:15:00.612Z,99608.25
2023-03-06T17:18:17.244Z,99617.56
2023-03-06T17:21:37.438Z,99609.28
2023-03-06T17:24:50.549Z,99607.47
2023-03-06T17:27:54.257Z,99606.28
2023-03-06T17:31:22.773Z,99598.91
2023-03-06T17:34:26.419Z,99605.78
2023-03-06T17:37:42.718Z,99597.66
2023-03-06T17:40:53.547Z,99597.53
2023-03-06T17:43:58.552Z,99591.03
2023-03-06T17:47:05.956Z,99601.59
2023-03-06T17:50:19.202Z,99593.44
2023-03-06T17:53:24.105Z,99592.25
2023-03-06T17:56:33.014Z,99602.53
2023-03-06T17:59:36.585Z,99601.16
2023-03-06T18:03:38.755Z,99606.44
2023-03-06T18:06:46.234Z,99600.06
2023-03-06T18:10:00.016Z,99607.75
2023-03-06T18:13:20.947Z,99610.81
2023-03-06T18:16:42.982Z,99605.69
2023-03-06T18:20:05.122Z,99613.75
2023-03-06T18:23:21.215Z,99610.78
2023-03-06T18:26:43.817Z,99600.16
2023-03-06T18:30:12.964Z,99598.59
2023-03-06T18:33:35.987Z,99603.84
2023-03-06T18:36:58.948Z,99610.03
2023-03-06T18:40:20.884Z,99615.16
2023-03-06T18:43:44.108Z,99611.47
2023-03-06T18:47:04.949Z,99601.66
2023-03-06T18:50:26.898Z,99599.16
2023-03-06T18:53:38.009Z,99608.59
2023-03-06T18:57:00.766Z,99587.31
2023-03-06T19:00:31.744Z,99583.41
2023-03-06T19:03:48.972Z,99578.84
2023-03-06T19:07:11.954Z,99600.13
2023-03-06T19:10:39.579Z,99583.53
2023-03-06T19:14:04.944Z,99592.97
2023-03-06T19:17:23.417Z,99595.38
2023-03-06T19:20:44.882Z,99591.09
2023-03-06T19:23:48.601Z,99604.44
2023-03-06T19:26:55.768Z,99594.59
2023-03-06T19:30:08.015Z,99598.03
2023-03-06T19:33:28.825Z,99598.72
2023-03-06T19:36:49.430Z,99580.47
2023-03-06T19:40:01.835Z,99583.13
2023-03-06T19:43:15.662Z,99581.63
2023-03-06T19:46:41.784Z,99582.44
2023-03-06T19:49:51.421Z,99594.34
2023-03-06T19:52:58.723Z,99592.03
2023-03-06T19:56:34.882Z,99572.44
2023-03-06T20:00:06.661Z,99572.91
2023-03-06T20:03:15.908Z,99582.06
2023-03-06T20:06:20.797Z,99572.13
2023-03-06T20:09:28.101Z,99575.13
2023-03-06T20:12:36.299Z,99572.34
2023-03-06T20:15:39.978Z,99574.50
2023-03-06T20:18:50.281Z,99567.00
2023-03-06T20:22:13.518Z,99569.13
2023-03-06T20:25:36.513Z,99569.13
2023-03-06T20:28:59.496Z,99574.53
2023-03-06T20:32:20.617Z,99581.22
2023-03-06T20:35:42.529Z,99588.81
2023-03-06T20:38:47.313Z,99586.91
2023-03-06T20:41:51.643Z,99590.22
2023-03-06T20:45:02.245Z,99592.44
2023-03-06T20:48:18.656Z,99601.06
2023-03-06T20:51:36.268Z,99598.63
2023-03-06T20:54:42.910Z,99593.78
2023-03-06T20:57:52.717Z,99586.19
2023-03-06T21:01:04.189Z,99585.16
2023-03-06T21:04:23.509Z,99582.41
2023-03-06T21:07:44.646Z,99581.59
2023-03-06T21:11:06.803Z,99571.66
2023-03-06T21:14:29.605Z,99573.25
2023-03-06T21:17:50.935Z,99578.22
2023-03-06T21:21:18.582Z,99584.22
2023-03-06T21:24:36.489Z,99594.44
2023-03-06T21:27:56.879Z,99597.19
2023-03-06T21:31:22.664Z,99597.00
2023-03-06T21:34:46.673Z,99587.16
2023-03-06T21:38:03.412Z,99596.88
2023-03-06T21:41:28.746Z,99595.28
2023-03-06T21:44:41.961Z,99591.22
2023-03-06T21:48:05.319Z,99590.75
2023-03-06T21:51:21.015Z,99584.88
2023-03-06T21:54:29.486Z,99595.28
2023-03-06T21:57:34.206Z,99581.66
2023-03-06T22:00:47.386Z,99581.13
2023-03-06T22:03:58.626Z,99588.19
2023-03-06T22:07:10.958Z,99573.59
2023-03-06T22:10:15.989Z,99587.47
2023-03-06T22:13:25.428Z,99591.56
2023-03-06T22:16:38.640Z,99590.94
2023-03-06T22:19:42.801Z,99578.13
2023-03-06T22:22:52.726Z,99580.25
2023-03-06T22:26:13.556Z,99580.81
2023-03-06T22:29:33.602Z,99579.38
2023-03-06T22:32:45.458Z,99578.53
2023-03-06T22:35:48.991Z,99579.09
2023-03-06T22:39:09.523Z,99579.91
2023-03-06T22:42:15.790Z,99573.97
2023-03-06T22:45:22.361Z,99571.56
2023-03-06T22:48:25.721Z,99581.47
2023-03-06T22:51:30.600Z,99577.56
2023-03-06T22:54:54.348Z,99584.19
2023-03-06T22:58:16.042Z,99573.97
2023-03-06T23:01:39.409Z,99576.38
2023-03-06T23:04:45.019Z,99583.06
2023-03-06T23:08:08.179Z,99587.28
2023-03-06T23:11:39.133Z,99587.25
2023-03-06T23:15:06.202Z,99586.31
2023-03-06T23:18:31.585Z,99595.22
2023-03-06T23:21:53.921Z,99588.78
2023-03-06T23:25:20.199Z,99589.09
2023-03-06T23:28:30.541Z,99590.47
2023-03-06T23:31:50.499Z,99592.56
2023-03-06T23:35:10.097Z,99579.38
2023-03-06T23:38:28.143Z,99580.00
2023-03-06T23:41:32.337Z,99585.38
2023-03-06T23:44:36.791Z,99583.00
2023-03-06T23:47:40.189Z,99587.66
2023-03-06T23:50:50.498Z,99588.75
2023-03-06T23:53:59.051Z,99582.84
2023-03-06T23:57:05.836Z,99590.75
